Time;durP1;ratioP1;P1;durP2;ratioP2;P2;SDS_P1;SDS_P2;PMS_P1;PMS_P2;Temp;Humidity;BMP_temperature;BMP_pressure;BME280_temperature;BME280_humidity;BME280_pressure;Samples;Min_cycle;Max_cycle;Signal;HPM_P1;HPM_P2
2023/09/11 00:01:32;;;;;;;10.75;7.88;;;25.20;99.90;;;;;;5088045;28;20083;-43
2023/09/11 00:04:01;;;;;;;9.23;8.07;;;25.20;99.90;;;;;;5086537;28;20086;-42
2023/09/11 00:06:27;;;;;;;8.90;8.00;;;25.20;99.90;;;;;;5088373;28;20046;-42
2023/09/11 00:08:52;;;;;;;10.63;8.18;;;25.20;99.90;;;;;;5088708;28;20016;-42
2023/09/11 00:11:18;;;;;;;9.80;8.90;;;25.20;99.90;;;;;;5087023;28;20028;-43
2023/09/11 00:13:47;;;;;;;8.65;7.78;;;25.10;99.90;;;;;;5088162;28;20023;-44
2023/09/11 00:16:12;;;;;;;9.05;8.15;;;25.10;99.90;;;;;;5088167;28;20097;-42
2023/09/11 00:18:38;;;;;;;8.90;8.00;;;25.10;99.90;;;;;;5087431;28;20020;-42
2023/09/11 00:21:03;;;;;;;9.43;7.43;;;25.10;99.90;;;;;;5087684;28;20127;-42
2023/09/11 00:23:29;;;;;;;9.57;7.90;;;25.00;99.90;;;;;;5088471;28;20044;-43
2023/09/11 00:25:55;;;;;;;8.32;7.47;;;25.00;99.90;;;;;;5086706;28;20063;-43
2023/09/11 00:28:20;;;;;;;8.90;7.55;;;25.00;99.90;;;;;;5087912;28;20035;-43
2023/09/11 00:30:46;;;;;;;9.95;8.15;;;24.90;99.90;;;;;;5087737;28;20588;-43
2023/09/11 00:33:11;;;;;;;9.20;7.25;;;25.00;99.90;;;;;;5086477;28;20039;-42
2023/09/11 00:35:37;;;;;;;9.32;8.35;;;24.90;99.90;;;;;;5082383;28;20025;-42
2023/09/11 00:38:03;;;;;;;7.57;6.88;;;24.90;99.90;;;;;;5082129;28;20020;-42
2023/09/11 00:40:28;;;;;;;8.85;7.82;;;24.90;99.90;;;;;;5086814;28;20028;-42
2023/09/11 00:42:54;;;;;;;8.55;7.75;;;24.80;99.90;;;;;;5087713;28;20065;-43
2023/09/11 00:45:19;;;;;;;9.07;8.13;;;24.80;99.90;;;;;;5086612;28;20031;-42
2023/09/11 00:47:49;;;;;;;11.02;8.40;;;24.80;99.90;;;;;;5086334;28;20366;-42
2023/09/11 00:50:17;;;;;;;10.15;8.68;;;24.80;99.90;;;;;;5087173;28;20110;-42
2023/09/11 00:52:43;;;;;;;10.13;8.00;;;24.80;99.90;;;;;;5087847;28;20934;-42
2023/09/11 00:55:09;;;;;;;9.20;8.13;;;24.80;99.90;;;;;;5086663;28;20024;-42
2023/09/11 00:57:36;;;;;;;10.48;7.95;;;24.80;99.90;;;;;;5087678;28;20514;-42
2023/09/11 01:00:04;;;;;;;10.75;8.68;;;24.70;99.90;;;;;;5085068;28;20124;-42
2023/09/11 01:02:30;;;;;;;8.30;7.47;;;24.80;99.90;;;;;;5084566;28;20028;-42
2023/09/11 01:04:55;;;;;;;8.38;7.47;;;24.80;99.90;;;;;;5086472;28;20031;-43
2023/09/11 01:07:21;;;;;;;9.20;8.30;;;24.70;99.90;;;;;;5084659;28;20055;-42
2023/09/11 01:09:47;;;;;;;8.48;7.63;;;24.70;99.90;;;;;;5086202;28;20112;-43
2023/09/11 01:12:13;;;;;;;9.52;8.00;;;24.70;99.90;;;;;;5085680;28;20081;-43
2023/09/11 01:14:42;;;;;;;9.65;8.65;;;24.70;99.90;;;;;;5084976;28;20020;-44
2023/09/11 01:17:24;;;;;;;9.02;8.13;;;24.70;99.90;;;;;;5083285;28;20395;-42
2023/09/11 01:20:24;;;;;;;11.65;8.40;;;24.60;99.90;;;;;;5085928;28;20745;-45
2023/09/11 01:23:08;;;;;;;9.50;8.00;;;24.60;99.90;;;;;;5075553;28;20361;-42
2023/09/11 01:26:01;;;;;;;12.48;8.73;;;24.60;99.90;;;;;;5085646;28;20024;-42
2023/09/11 01:28:29;;;;;;;10.13;8.52;;;24.60;99.90;;;;;;5084475;28;20024;-42
2023/09/11 01:30:58;;;;;;;13.07;8.82;;;24.60;99.90;;;;;;5086147;28;20046;-42
2023/09/11 01:33:29;;;;;;;10.02;8.52;;;24.60;99.90;;;;;;5085293;28;20032;-42
2023/09/11 01:35:55;;;;;;;11.65;9.20;;;24.60;99.90;;;;;;5084976;28;20093;-42
2023/09/11 01:38:21;;;;;;;9.40;8.40;;;24.50;99.90;;;;;;5084963;28;20024;-42
2023/09/11 01:40:58;;;;;;;12.52;8.55;;;24.50;99.90;;;;;;5085539;28;20143;-42
2023/09/11 01:43:29;;;;;;;9.75;8.38;;;24.50;99.90;;;;;;5085034;28;20069;-42
2023/09/11 01:45:58;;;;;;;10.45;7.75;;;24.40;99.90;;;;;;5086151;28;20036;-42
2023/09/11 01:48:24;;;;;;;9.25;8.35;;;24.50;99.90;;;;;;5085314;28;20020;-42
2023/09/11 01:50:51;;;;;;;9.27;8.27;;;24.40;99.90;;;;;;5084676;28;20035;-42
2023/09/11 01:53:16;;;;;;;8.77;7.88;;;24.40;99.90;;;;;;5084644;28;20024;-42
2023/09/11 01:55:42;;;;;;;9.80;8.77;;;24.40;99.90;;;;;;5084951;28;20109;-42
2023/09/11 01:58:08;;;;;;;9.70;8.68;;;24.40;99.90;;;;;;5083851;28;20447;-42
2023/09/11 02:00:34;;;;;;;12.10;8.25;;;24.40;99.90;;;;;;5048494;28;1049697;-42
2023/09/11 02:03:01;;;;;;;10.18;8.15;;;24.40;99.90;;;;;;5085379;28;20036;-42
2023/09/11 02:05:29;;;;;;;9.10;7.78;;;24.40;99.90;;;;;;5085144;28;20378;-42
2023/09/11 02:07:56;;;;;;;8.80;7.90;;;24.40;99.90;;;;;;5086039;28;20385;-42
2023/09/11 02:10:21;;;;;;;10.25;8.52;;;24.30;99.90;;;;;;5084772;28;20023;-42
2023/09/11 02:12:47;;;;;;;10.18;8.07;;;24.40;99.90;;;;;;5085644;28;20024;-42
2023/09/11 02:15:13;;;;;;;9.93;7.93;;;24.40;99.90;;;;;;5084766;28;20056;-43
2023/09/11 02:17:47;;;;;;;9.93;8.63;;;24.40;99.90;;;;;;5085111;28;20080;-43
2023/09/11 02:20:13;;;;;;;9.02;8.10;;;24.40;99.90;;;;;;5084344;28;20676;-43
2023/09/11 02:22:38;;;;;;;9.30;8.38;;;24.30;99.90;;;;;;5085489;28;20024;-43
2023/09/11 02:25:10;;;;;;;10.90;8.50;;;24.40;99.90;;;;;;5084523;28;20031;-42
2023/09/11 02:27:36;;;;;;;9.52;8.52;;;24.30;99.90;;;;;;5086144;28;20115;-43
2023/09/11 02:30:01;;;;;;;9.52;8.50;;;24.30;99.90;;;;;;5085020;28;20104;-42
2023/09/11 02:32:27;;;;;;;11.23;8.68;;;24.30;99.90;;;;;;5085402;28;20341;-43
2023/09/11 02:34:52;;;;;;;9.50;8.20;;;24.30;99.90;;;;;;5085498;28;20826;-42
2023/09/11 02:37:18;;;;;;;9.10;8.20;;;24.30;99.90;;;;;;5085439;28;20036;-43
2023/09/11 02:39:55;;;;;;;9.20;8.32;;;24.30;99.90;;;;;;5084130;28;20039;-42
2023/09/11 02:42:24;;;;;;;9.93;8.45;;;24.30;99.90;;;;;;5085105;28;20173;-42
2023/09/11 02:44:50;;;;;;;10.68;8.50;;;24.30;99.90;;;;;;5085410;28;20032;-42
2023/09/11 02:47:15;;;;;;;10.43;8.55;;;24.30;99.90;;;;;;5084362;28;20058;-42
2023/09/11 02:49:41;;;;;;;10.45;8.50;;;24.20;99.90;;;;;;5084943;28;20016;-42
2023/09/11 02:52:06;;;;;;;9.07;7.50;;;24.20;99.90;;;;;;5084413;28;20017;-42
2023/09/11 02:54:32;;;;;;;10.32;7.97;;;24.20;99.90;;;;;;5084558;28;20024;-42
2023/09/11 02:56:57;;;;;;;10.45;8.82;;;24.20;99.90;;;;;;5085071;28;20460;-42
2023/09/11 02:59:23;;;;;;;9.90;8.45;;;24.10;99.90;;;;;;5084453;28;20026;-42
2023/09/11 03:01:49;;;;;;;9.05;8.07;;;24.10;99.90;;;;;;5084841;28;20800;-43
2023/09/11 03:04:14;;;;;;;9.23;8.13;;;24.10;99.90;;;;;;5084591;28;20036;-42
2023/09/11 03:06:40;;;;;;;11.18;8.43;;;24.00;99.90;;;;;;5083997;28;20490;-43
2023/09/11 03:09:05;;;;;;;9.57;8.48;;;24.00;99.90;;;;;;5084518;28;20735;-42
2023/09/11 03:11:31;;;;;;;10.15;9.07;;;23.90;99.90;;;;;;5084718;28;20039;-42
2023/09/11 03:13:57;;;;;;;9.18;8.27;;;23.90;99.90;;;;;;5083801;28;20088;-43
2023/09/11 03:16:22;;;;;;;10.25;9.25;;;23.90;99.90;;;;;;5084057;28;20032;-42
2023/09/11 03:18:48;;;;;;;9.35;8.45;;;23.90;99.90;;;;;;5084775;28;20023;-42
2023/09/11 03:21:13;;;;;;;10.50;9.40;;;23.90;99.90;;;;;;5083301;28;20036;-43
2023/09/11 03:23:39;;;;;;;9.50;8.57;;;23.90;99.90;;;;;;5084925;28;20421;-43
2023/09/11 03:26:15;;;;;;;10.00;9.02;;;23.80;99.90;;;;;;5083841;28;20030;-43
2023/09/11 03:28:50;;;;;;;10.63;8.63;;;23.80;99.90;;;;;;5083718;28;20131;-42
2023/09/11 03:31:18;;;;;;;10.57;8.75;;;23.80;99.90;;;;;;5083595;28;20035;-42
2023/09/11 03:33:50;;;;;;;11.15;9.23;;;23.80;99.90;;;;;;5084954;28;20031;-43
2023/09/11 03:36:17;;;;;;;10.90;9.45;;;23.80;99.90;;;;;;5083361;28;20104;-42
2023/09/11 03:38:45;;;;;;;10.10;8.93;;;23.80;99.90;;;;;;5084367;28;20356;-42
2023/09/11 03:41:11;;;;;;;10.07;9.07;;;23.80;99.90;;;;;;5084096;28;20040;-43
2023/09/11 03:43:39;;;;;;;12.63;9.00;;;23.70;99.90;;;;;;5084222;28;20035;-43
2023/09/11 03:46:05;;;;;;;9.90;8.35;;;23.70;99.90;;;;;;5083757;28;20585;-43
2023/09/11 03:48:30;;;;;;;9.98;8.90;;;23.70;99.90;;;;;;5084534;28;20012;-43
2023/09/11 03:50:59;;;;;;;10.23;9.05;;;23.70;99.90;;;;;;5084182;28;20032;-42
2023/09/11 03:53:24;;;;;;;10.35;9.05;;;23.70;99.90;;;;;;5083817;28;20047;-42
2023/09/11 03:55:50;;;;;;;9.68;8.68;;;23.70;99.90;;;;;;5083919;28;20117;-43
2023/09/11 03:58:16;;;;;;;11.93;9.52;;;23.60;99.90;;;;;;5083827;28;20959;-41
2023/09/11 04:00:42;;;;;;;11.90;9.10;;;23.60;99.90;;;;;;5084269;28;20132;-42
2023/09/11 04:03:08;;;;;;;13.77;9.30;;;23.60;99.90;;;;;;5082715;28;20070;-43
2023/09/11 04:05:39;;;;;;;10.63;9.60;;;23.50;99.90;;;;;;5084009;28;20048;-43
2023/09/11 04:08:05;;;;;;;11.52;9.57;;;23.50;99.90;;;;;;5083588;28;20064;-43
2023/09/11 04:10:31;;;;;;;11.75;9.50;;;23.50;99.90;;;;;;5083280;28;20060;-43
2023/09/11 04:12:56;;;;;;;11.25;9.85;;;23.50;99.90;;;;;;5083441;28;20035;-42
2023/09/11 04:15:25;;;;;;;13.07;9.18;;;23.40;99.90;;;;;;5083761;28;20088;-42
2023/09/11 04:17:54;;;;;;;10.98;9.88;;;23.40;99.90;;;;;;5083634;28;20028;-42
2023/09/11 04:20:20;;;;;;;11.30;9.35;;;23.40;99.90;;;;;;5083612;28;20044;-42
2023/09/11 04:22:46;;;;;;;10.50;9.40;;;23.40;99.90;;;;;;5084391;28;20081;-43
2023/09/11 04:25:18;;;;;;;10.88;9.75;;;23.40;99.90;;;;;;5082871;28;20521;-43
2023/09/11 04:27:44;;;;;;;13.07;10.18;;;23.40;99.90;;;;;;5084283;28;20081;-42
2023/09/11 04:30:10;;;;;;;11.35;10.25;;;23.40;99.90;;;;;;5083122;28;20035;-43
2023/09/11 04:32:35;;;;;;;12.10;10.80;;;23.30;99.90;;;;;;5083915;28;20024;-42
2023/09/11 04:35:01;;;;;;;11.75;10.40;;;23.30;99.90;;;;;;5083372;28;20034;-42
2023/09/11 04:37:26;;;;;;;11.80;10.63;;;23.30;99.90;;;;;;5084160;28;20039;-42
2023/09/11 04:39:52;;;;;;;13.10;10.43;;;23.30;99.90;;;;;;5083155;28;20028;-42
2023/09/11 04:42:20;;;;;;;11.60;10.43;;;23.30;99.90;;;;;;5083522;28;20020;-43
2023/09/11 04:44:46;;;;;;;11.98;10.05;;;23.30;99.90;;;;;;5087164;28;20101;-42
2023/09/11 04:47:11;;;;;;;14.32;10.32;;;23.20;99.90;;;;;;5086891;28;20475;-42
2023/09/11 04:49:37;;;;;;;13.93;10.27;;;23.20;99.90;;;;;;5087401;28;20489;-43
2023/09/11 04:52:03;;;;;;;11.90;10.55;;;23.20;99.90;;;;;;5086555;28;20079;-42
2023/09/11 04:54:31;;;;;;;10.57;9.57;;;23.20;99.90;;;;;;5087463;28;20028;-43
2023/09/11 04:56:57;;;;;;;12.18;10.82;;;23.20;99.90;;;;;;5087309;28;20080;-43
2023/09/11 04:59:22;;;;;;;12.38;10.25;;;23.10;99.90;;;;;;5086431;28;20024;-42
2023/09/11 05:01:48;;;;;;;13.15;9.50;;;23.10;99.90;;;;;;5087667;28;20063;-43
2023/09/11 05:04:14;;;;;;;11.55;10.35;;;23.10;99.90;;;;;;5086127;28;20020;-42
2023/09/11 05:06:39;;;;;;;12.27;10.35;;;23.10;99.90;;;;;;5086123;28;20027;-45
2023/09/11 05:09:05;;;;;;;11.18;10.18;;;23.10;99.90;;;;;;5086660;28;20092;-44
2023/09/11 05:11:30;;;;;;;11.02;9.75;;;23.00;99.90;;;;;;5087417;28;20016;-42
2023/09/11 05:13:56;;;;;;;11.25;10.05;;;23.10;99.90;;;;;;5086290;28;20480;-43
2023/09/11 05:16:21;;;;;;;14.93;10.10;;;23.10;99.90;;;;;;5086664;28;20024;-43
2023/09/11 05:18:47;;;;;;;12.63;9.63;;;23.10;99.90;;;;;;5086752;28;20024;-42
2023/09/11 05:21:13;;;;;;;12.82;10.20;;;23.10;99.90;;;;;;5085118;28;20514;-42
2023/09/11 05:23:45;;;;;;;10.73;9.60;;;23.00;99.90;;;;;;5087525;28;20027;-43
2023/09/11 05:26:13;;;;;;;10.88;9.85;;;23.00;99.90;;;;;;5086117;28;20093;-42
2023/09/11 05:28:42;;;;;;;11.50;10.00;;;23.00;99.90;;;;;;5085923;28;20027;-42
2023/09/11 05:31:08;;;;;;;12.32;10.52;;;23.00;99.90;;;;;;5085786;28;20169;-42
2023/09/11 05:33:34;;;;;;;11.75;10.45;;;23.00;99.90;;;;;;5087008;28;20100;-44
2023/09/11 05:36:02;;;;;;;12.07;10.85;;;23.00;99.90;;;;;;5085567;28;20506;-44
2023/09/11 05:38:30;;;;;;;15.15;10.65;;;23.10;99.90;;;;;;5087309;28;20475;-43
2023/09/11 05:40:56;;;;;;;12.57;10.88;;;23.10;99.90;;;;;;5086512;28;20506;-43
2023/09/11 05:43:22;;;;;;;14.80;10.93;;;23.00;99.90;;;;;;5085561;28;20102;-43
2023/09/11 05:45:47;;;;;;;12.57;11.00;;;23.10;99.90;;;;;;5086257;28;20050;-43
2023/09/11 05:48:13;;;;;;;11.30;10.20;;;23.10;99.90;;;;;;5084466;28;20020;-43
2023/09/11 05:50:39;;;;;;;15.25;11.82;;;23.10;99.90;;;;;;5086825;28;20804;-42
2023/09/11 05:53:07;;;;;;;14.32;11.32;;;23.10;99.90;;;;;;5086718;28;20127;-42
2023/09/11 05:55:33;;;;;;;13.23;11.65;;;23.10;99.90;;;;;;5084378;28;20105;-42
2023/09/11 05:58:00;;;;;;;12.80;11.35;;;23.10;99.90;;;;;;5083314;28;20100;-42
2023/09/11 06:00:26;;;;;;;14.38;10.45;;;23.10;99.90;;;;;;5085247;28;20406;-42
2023/09/11 06:02:55;;;;;;;13.10;10.73;;;23.10;99.90;;;;;;5084632;28;20839;-43
2023/09/11 06:05:22;;;;;;;13.70;10.63;;;23.10;99.90;;;;;;5084935;28;20032;-43
2023/09/11 06:07:47;;;;;;;12.30;9.82;;;23.10;99.90;;;;;;5085036;28;20027;-42
2023/09/11 06:10:13;;;;;;;14.02;9.88;;;23.20;99.90;;;;;;5084041;28;20115;-43
2023/09/11 06:12:39;;;;;;;14.43;9.73;;;23.10;99.90;;;;;;5084884;28;20024;-42
2023/09/11 06:15:06;;;;;;;10.90;9.90;;;23.10;99.90;;;;;;5084838;28;20077;-42
2023/09/11 06:17:33;;;;;;;10.40;9.32;;;23.10;99.90;;;;;;5084679;28;20050;-42
2023/09/11 06:19:59;;;;;;;10.45;9.40;;;23.10;99.90;;;;;;5065004;28;20036;-42
2023/09/11 06:22:25;;;;;;;10.00;9.10;;;23.10;99.90;;;;;;5079355;28;20020;-43
2023/09/11 06:24:51;;;;;;;10.52;9.30;;;23.10;99.90;;;;;;5084811;28;20028;-42
2023/09/11 06:27:17;;;;;;;10.18;9.07;;;23.20;99.90;;;;;;5084210;28;20024;-42
2023/09/11 06:29:43;;;;;;;10.32;9.18;;;23.20;99.90;;;;;;5085336;28;20032;-42
2023/09/11 06:32:11;;;;;;;10.20;9.30;;;23.20;99.90;;;;;;5083553;28;20012;-42
2023/09/11 06:34:40;;;;;;;10.00;9.07;;;23.30;99.90;;;;;;5085557;28;20032;-46
2023/09/11 06:37:09;;;;;;;9.98;9.02;;;23.30;99.90;;;;;;5084419;28;20077;-42
2023/09/11 06:39:36;;;;;;;10.48;9.38;;;23.30;99.90;;;;;;5084487;28;20043;-43
2023/09/11 06:42:02;;;;;;;10.40;9.32;;;23.40;99.90;;;;;;5084273;28;20016;-42
2023/09/11 06:44:27;;;;;;;10.95;9.38;;;23.40;99.90;;;;;;5084132;28;20035;-43
2023/09/11 06:46:53;;;;;;;10.52;9.07;;;23.40;99.90;;;;;;5085104;28;20047;-43
2023/09/11 06:49:19;;;;;;;10.38;9.40;;;23.40;99.90;;;;;;5084377;28;20044;-45
2023/09/11 06:51:44;;;;;;;10.45;9.23;;;23.40;99.90;;;;;;5084282;28;20225;-43
2023/09/11 06:54:12;;;;;;;9.40;8.48;;;23.40;99.90;;;;;;5084319;28;20103;-43
2023/09/11 06:56:40;;;;;;;10.80;8.82;;;23.50;99.90;;;;;;5084594;28;20045;-43
2023/09/11 06:59:06;;;;;;;10.98;9.13;;;23.50;99.90;;;;;;5083436;28;20380;-43
2023/09/11 07:01:36;;;;;;;9.63;8.65;;;23.60;99.90;;;;;;5084250;28;20044;-43
2023/09/11 07:04:02;;;;;;;9.50;8.35;;;23.70;99.90;;;;;;5084268;28;20039;-43
2023/09/11 07:06:27;;;;;;;10.85;8.32;;;23.70;99.90;;;;;;5084734;28;20054;-43
2023/09/11 07:08:53;;;;;;;8.75;7.95;;;23.70;99.90;;;;;;5084479;28;20098;-43
2023/09/11 07:11:18;;;;;;;9.95;8.32;;;23.70;99.90;;;;;;5084421;28;20020;-43
2023/09/11 07:13:44;;;;;;;8.20;7.38;;;23.70;99.90;;;;;;5084558;28;20757;-43
2023/09/11 07:16:10;;;;;;;8.15;7.40;;;23.80;99.90;;;;;;5084761;28;20142;-43
2023/09/11 07:18:38;;;;;;;9.45;6.97;;;23.80;99.90;;;;;;5084746;28;20151;-43
2023/09/11 07:21:04;;;;;;;7.85;6.78;;;23.80;99.90;;;;;;5083221;28;20097;-42
2023/09/11 07:23:33;;;;;;;8.13;7.05;;;23.80;99.90;;;;;;5084461;28;20024;-43
2023/09/11 07:25:59;;;;;;;9.13;6.70;;;23.90;99.90;;;;;;5084690;28;20059;-43
2023/09/11 07:28:27;;;;;;;7.75;6.93;;;24.00;99.90;;;;;;5083925;28;20059;-43
2023/09/11 07:30:53;;;;;;;7.20;6.40;;;24.00;99.90;;;;;;5084620;28;20039;-42
2023/09/11 07:33:19;;;;;;;9.65;7.68;;;24.00;99.90;;;;;;5083658;28;20505;-43
2023/09/11 07:35:45;;;;;;;8.55;7.75;;;24.10;99.90;;;;;;5083899;28;20039;-42
2023/09/11 07:38:14;;;;;;;7.20;6.57;;;24.10;99.90;;;;;;5083419;28;20058;-42
2023/09/11 07:40:40;;;;;;;8.48;7.60;;;24.10;99.90;;;;;;5084535;28;20122;-43
2023/09/11 07:43:05;;;;;;;8.95;7.63;;;24.10;99.90;;;;;;5083371;28;20028;-44
2023/09/11 07:45:31;;;;;;;11.88;8.90;;;24.10;99.90;;;;;;5083877;28;20039;-41
2023/09/11 07:47:56;;;;;;;9.75;7.57;;;24.10;99.90;;;;;;5083821;28;20027;-42
2023/09/11 07:50:22;;;;;;;9.15;7.93;;;24.10;99.90;;;;;;5083820;28;20030;-42
2023/09/11 07:52:49;;;;;;;8.13;7.32;;;24.10;99.90;;;;;;5084724;28;20028;-42
2023/09/11 07:55:14;;;;;;;7.53;6.78;;;24.10;99.90;;;;;;5083499;28;20027;-42
2023/09/11 07:57:43;;;;;;;8.02;7.22;;;24.10;99.90;;;;;;5083932;28;20036;-42
2023/09/11 08:00:12;;;;;;;7.80;6.97;;;24.10;99.90;;;;;;5083551;28;20035;-42
2023/09/11 08:02:38;;;;;;;8.23;7.07;;;24.10;99.90;;;;;;5083425;28;20565;-42
2023/09/11 08:05:03;;;;;;;7.43;6.55;;;24.20;99.90;;;;;;5083001;28;20024;-42
2023/09/11 08:07:29;;;;;;;7.68;6.85;;;24.10;99.90;;;;;;5084606;28;20418;-42
2023/09/11 08:09:59;;;;;;;9.45;7.00;;;24.20;99.90;;;;;;5083317;28;20028;-42
2023/09/11 08:12:27;;;;;;;9.50;7.60;;;24.20;99.90;;;;;;5073012;28;20039;-42
2023/09/11 08:14:53;;;;;;;8.55;7.75;;;24.30;99.90;;;;;;5084403;28;20019;-43
2023/09/11 08:17:19;;;;;;;8.52;6.53;;;24.30;99.90;;;;;;5083517;28;20020;-43
2023/09/11 08:19:44;;;;;;;8.15;7.35;;;24.30;99.90;;;;;;5087264;28;20544;-43
2023/09/11 08:22:10;;;;;;;7.78;7.07;;;24.30;99.90;;;;;;5086011;28;20139;-43
2023/09/11 08:24:35;;;;;;;7.82;7.03;;;24.30;99.90;;;;;;5087241;28;20479;-42
2023/09/11 08:27:01;;;;;;;9.38;6.72;;;24.40;99.90;;;;;;5087260;28;20543;-43
2023/09/11 08:29:26;;;;;;;7.68;6.97;;;24.40;99.90;;;;;;5088575;28;20367;-43
2023/09/11 08:31:52;;;;;;;7.40;6.70;;;24.40;99.90;;;;;;5087681;28;20024;-42
2023/09/11 08:34:20;;;;;;;6.75;6.05;;;24.40;99.90;;;;;;5087180;28;20035;-42
2023/09/11 08:36:47;;;;;;;9.65;7.38;;;24.50;99.90;;;;;;5087687;28;20024;-42
2023/09/11 08:39:12;;;;;;;8.02;7.00;;;24.50;99.90;;;;;;5086510;28;20436;-42
2023/09/11 08:41:40;;;;;;;6.72;5.78;;;24.60;99.90;;;;;;5087830;28;20484;-44
2023/09/11 08:44:05;;;;;;;7.18;6.15;;;24.60;99.90;;;;;;5086746;28;20023;-43
2023/09/11 08:46:33;;;;;;;6.82;6.10;;;24.70;99.90;;;;;;5087518;28;20024;-42
2023/09/11 08:49:00;;;;;;;6.88;6.18;;;24.70;99.90;;;;;;5087641;28;20028;-42
2023/09/11 08:51:41;;;;;;;8.00;6.82;;;24.80;99.90;;;;;;5087041;28;20060;-42
2023/09/11 08:54:09;;;;;;;7.22;5.97;;;24.90;99.90;;;;;;5087183;28;20031;-43
2023/09/11 08:56:43;;;;;;;7.07;6.38;;;24.90;99.90;;;;;;5086213;28;20028;-42
2023/09/11 08:59:11;;;;;;;5.78;5.20;;;24.90;99.90;;;;;;5085223;28;20028;-43
2023/09/11 09:01:38;;;;;;;9.48;6.65;;;24.90;99.90;;;;;;5086832;28;20056;-43
2023/09/11 09:04:05;;;;;;;6.72;6.00;;;25.00;99.90;;;;;;5086629;28;20040;-43
2023/09/11 09:06:33;;;;;;;8.05;7.00;;;25.00;99.90;;;;;;5087072;28;20157;-43
2023/09/11 09:08:59;;;;;;;7.38;6.07;;;25.10;99.90;;;;;;5087264;28;20055;-42
2023/09/11 09:11:26;;;;;;;7.05;6.35;;;25.10;99.90;;;;;;5087091;28;20028;-43
2023/09/11 09:13:51;;;;;;;8.45;6.82;;;25.10;99.90;;;;;;5086652;28;20028;-43
2023/09/11 09:16:17;;;;;;;8.77;7.10;;;25.20;99.90;;;;;;5086600;28;20024;-42
2023/09/11 09:18:51;;;;;;;6.95;5.40;;;25.20;99.90;;;;;;5086895;28;20434;-43
2023/09/11 09:21:18;;;;;;;7.40;6.53;;;25.30;99.90;;;;;;5085891;28;20151;-43
2023/09/11 09:23:44;;;;;;;7.32;6.68;;;25.30;99.90;;;;;;5086754;28;20028;-42
2023/09/11 09:26:11;;;;;;;6.18;5.63;;;25.40;99.90;;;;;;5086125;28;20093;-42
2023/09/11 09:28:47;;;;;;;6.90;5.95;;;25.40;99.90;;;;;;5086551;28;20360;-42
2023/09/11 09:31:25;;;;;;;5.68;5.13;;;25.40;99.90;;;;;;5086616;28;20109;-42
2023/09/11 09:33:53;;;;;;;8.05;6.85;;;25.50;99.90;;;;;;5086700;28;20058;-42
2023/09/11 09:36:18;;;;;;;5.95;5.43;;;25.50;99.90;;;;;;5086638;28;20035;-43
2023/09/11 09:38:44;;;;;;;7.07;6.47;;;25.60;99.90;;;;;;5086737;28;20371;-43
2023/09/11 09:41:10;;;;;;;7.40;6.40;;;25.60;99.90;;;;;;5085856;28;20585;-43
2023/09/11 09:43:36;;;;;;;6.93;5.22;;;25.70;99.90;;;;;;5086420;28;20027;-43
2023/09/11 09:46:20;;;;;;;7.75;5.65;;;25.70;99.90;;;;;;5086179;28;20028;-43
2023/09/11 09:48:46;;;;;;;4.97;4.43;;;25.70;99.90;;;;;;5086140;28;20020;-43
2023/09/11 09:51:11;;;;;;;6.03;4.97;;;25.80;99.90;;;;;;5086110;28;20070;-43
2023/09/11 09:53:42;;;;;;;6.22;5.00;;;25.80;99.90;;;;;;5086106;28;20016;-43
2023/09/11 09:56:10;;;;;;;5.83;5.33;;;25.80;99.90;;;;;;5085669;28;20436;-43
2023/09/11 09:58:41;;;;;;;6.63;5.30;;;25.90;99.90;;;;;;5086094;28;20039;-43
2023/09/11 10:01:17;;;;;;;5.82;5.22;;;25.90;99.90;;;;;;5075059;28;20076;-43
2023/09/11 10:03:45;;;;;;;5.10;4.63;;;25.90;99.90;;;;;;5085988;28;20421;-43
2023/09/11 10:06:22;;;;;;;5.30;4.80;;;25.90;99.90;;;;;;5085747;28;20028;-43
2023/09/11 10:09:13;;;;;;;5.75;4.28;;;26.00;99.90;;;;;;5085798;28;20024;-43
2023/09/11 10:11:44;;;;;;;4.78;4.28;;;26.00;99.90;;;;;;5076835;28;20020;-43
2023/09/11 10:14:11;;;;;;;6.60;5.22;;;26.10;99.90;;;;;;5085663;28;20020;-43
2023/09/11 10:16:36;;;;;;;7.18;5.07;;;26.20;99.90;;;;;;5084972;28;20024;-43
2023/09/11 10:19:03;;;;;;;5.22;4.22;;;26.20;99.90;;;;;;5085347;28;20031;-43
2023/09/11 10:21:30;;;;;;;4.95;4.40;;;26.20;99.90;;;;;;5085828;28;20623;-42
2023/09/11 10:23:56;;;;;;;6.60;5.63;;;26.30;99.90;;;;;;5084671;28;20024;-42
2023/09/11 10:26:39;;;;;;;6.07;5.10;;;26.30;99.90;;;;;;5084874;28;20079;-42
2023/09/11 10:29:09;;;;;;;4.93;4.20;;;26.30;99.90;;;;;;5085076;28;20043;-43
2023/09/11 10:31:56;;;;;;;5.50;4.80;;;26.30;99.90;;;;;;5085147;28;20027;-43
2023/09/11 10:34:25;;;;;;;6.10;4.70;;;26.40;99.90;;;;;;5084760;28;20024;-43
2023/09/11 10:36:58;;;;;;;5.20;4.57;;;26.40;99.90;;;;;;5078436;28;20060;-41
2023/09/11 10:39:25;;;;;;;6.32;4.97;;;26.40;99.90;;;;;;5085355;28;20036;-42
2023/09/11 10:41:51;;;;;;;4.90;3.95;;;26.50;99.90;;;;;;5084054;28;20036;-43
2023/09/11 10:44:17;;;;;;;4.20;3.80;;;26.50;99.90;;;;;;5084138;28;20024;-43
2023/09/11 10:46:51;;;;;;;5.95;4.20;;;26.60;99.90;;;;;;5085540;28;20052;-43
2023/09/11 10:49:23;;;;;;;4.30;3.90;;;26.60;99.90;;;;;;5084790;28;20414;-43
2023/09/11 10:51:49;;;;;;;5.15;4.65;;;26.70;99.90;;;;;;5084312;28;20099;-43
2023/09/11 10:54:19;;;;;;;5.45;3.97;;;26.80;99.90;;;;;;5085059;28;20089;-42
2023/09/11 10:56:44;;;;;;;4.82;4.30;;;26.90;99.90;;;;;;5085411;28;20032;-42
2023/09/11 10:59:11;;;;;;;6.35;4.90;;;26.90;99.90;;;;;;5081701;28;20077;-43
2023/09/11 11:01:37;;;;;;;5.32;4.22;;;27.00;99.90;;;;;;5083146;28;20048;-42
2023/09/11 11:04:06;;;;;;;4.97;3.92;;;27.00;99.90;;;;;;5083068;28;20473;-42
2023/09/11 11:06:33;;;;;;;4.03;3.63;;;27.00;99.90;;;;;;5083689;28;20074;-43
2023/09/11 11:09:00;;;;;;;3.70;3.40;;;27.00;99.90;;;;;;5084858;28;20062;-43
2023/09/11 11:11:28;;;;;;;3.33;2.90;;;27.10;99.90;;;;;;5084561;28;20028;-43
2023/09/11 11:14:15;;;;;;;4.00;3.70;;;27.10;99.90;;;;;;5083477;28;20030;-42
2023/09/11 11:17:04;;;;;;;4.13;3.70;;;27.10;99.90;;;;;;5084431;28;20039;-42
2023/09/11 11:19:51;;;;;;;3.78;3.47;;;27.20;99.90;;;;;;5083778;28;20020;-44
2023/09/11 11:22:43;;;;;;;4.28;3.03;;;27.20;99.90;;;;;;5083342;28;20039;-44
2023/09/11 11:25:11;;;;;;;4.07;3.67;;;27.20;99.90;;;;;;5082360;28;20040;-42
2023/09/11 11:27:41;;;;;;;4.78;3.67;;;27.30;99.90;;;;;;5082855;28;20051;-43
2023/09/11 11:30:07;;;;;;;3.80;3.45;;;27.40;99.90;;;;;;5083462;28;20020;-43
2023/09/11 11:32:35;;;;;;;3.42;3.10;;;27.40;99.90;;;;;;5083666;28;20416;-43
2023/09/11 11:35:04;;;;;;;3.90;3.20;;;27.40;99.90;;;;;;5083441;28;20060;-42
2023/09/11 11:37:36;;;;;;;5.32;3.67;;;27.50;99.90;;;;;;5083204;28;20100;-42
2023/09/11 11:40:08;;;;;;;4.38;3.97;;;27.50;99.90;;;;;;5082423;28;20043;-43
2023/09/11 11:42:36;;;;;;;;;;;27.60;99.90;;;;;;5083544;28;20038;-43
2023/09/11 11:45:04;;;;;;;5.15;3.60;;;27.60;99.90;;;;;;5082711;28;19908;-43
2023/09/11 11:47:36;;;;;;;4.63;3.70;;;27.60;99.90;;;;;;5082341;28;20535;-42
2023/09/11 11:50:12;;;;;;;3.85;3.45;;;27.70;99.90;;;;;;5083528;28;20024;-43
2023/09/11 11:52:38;;;;;;;3.42;3.13;;;27.70;99.90;;;;;;5086026;28;20031;-43
2023/09/11 11:55:20;;;;;;;3.50;3.20;;;27.70;99.90;;;;;;5087168;28;20020;-43
2023/09/11 11:57:50;;;;;;;3.85;3.50;;;27.80;99.90;;;;;;5087570;28;20028;-42
2023/09/11 12:00:16;;;;;;;3.80;3.50;;;27.80;99.90;;;;;;5087480;28;20043;-43
2023/09/11 12:02:41;;;;;;;5.07;3.60;;;27.90;99.90;;;;;;5087983;28;20035;-42
2023/09/11 12:05:20;;;;;;;3.80;3.50;;;27.90;99.90;;;;;;5087754;28;20032;-44
2023/09/11 12:07:46;;;;;;;4.57;4.10;;;28.00;99.90;;;;;;5088628;28;20016;-43
2023/09/11 12:10:12;;;;;;;4.88;3.80;;;28.00;99.90;;;;;;5086907;28;20352;-43
2023/09/11 12:12:42;;;;;;;6.38;3.90;;;28.00;99.90;;;;;;5087269;28;20040;-43
2023/09/11 12:15:10;;;;;;;4.68;4.00;;;28.00;99.90;;;;;;5078726;28;20103;-43
2023/09/11 12:17:43;;;;;;;5.03;4.30;;;28.00;99.90;;;;;;5088132;28;20054;-43
2023/09/11 12:20:14;;;;;;;5.63;4.43;;;28.00;99.90;;;;;;5086387;28;20463;-43
2023/09/11 12:22:45;;;;;;;4.93;3.67;;;28.00;99.90;;;;;;5087711;28;20070;-43
2023/09/11 12:25:15;;;;;;;3.78;3.35;;;28.00;99.90;;;;;;5087249;28;20047;-43
2023/09/11 12:27:43;;;;;;;4.28;3.50;;;28.00;99.90;;;;;;5088138;28;20130;-43
2023/09/11 12:30:09;;;;;;;3.42;3.13;;;28.00;99.90;;;;;;5086454;28;20040;-43
2023/09/11 12:32:35;;;;;;;4.13;3.67;;;28.10;99.90;;;;;;5087911;28;20074;-43
2023/09/11 12:35:01;;;;;;;6.25;3.95;;;28.10;99.90;;;;;;5086894;28;20141;-43
2023/09/11 12:37:27;;;;;;;5.97;3.42;;;28.20;99.90;;;;;;5067217;28;20396;-43
2023/09/11 12:39:56;;;;;;;5.03;3.88;;;28.20;99.90;;;;;;5081347;28;20068;-43
2023/09/11 12:42:25;;;;;;;3.70;3.40;;;28.30;99.90;;;;;;5087630;28;20123;-43
2023/09/11 12:44:53;;;;;;;4.15;3.75;;;28.30;99.90;;;;;;5087540;28;20024;-44
2023/09/11 12:47:19;;;;;;;4.35;3.95;;;28.30;99.90;;;;;;5087835;28;20089;-43